Time;durP1;ratioP1;P1;durP2;ratioP2;P2;SDS_P1;SDS_P2;PMS_P1;PMS_P2;Temp;Humidity;BMP_temperature;BMP_pressure;BME280_temperature;BME280_humidity;BME280_pressure;Samples;Min_cycle;Max_cycle;Signal;HPM_P1;HPM_P2
2023/07/07 00:02:23;;;;;;;3.90;2.90;;;21.20;63.80;;;;;;5059213;28;20549;-73
2023/07/07 00:04:50;;;;;;;4.97;2.93;;;21.20;64.20;;;;;;5055346;28;20222;-72
2023/07/07 00:07:17;;;;;;;3.83;2.80;;;21.20;64.40;;;;;;5054950;28;20229;-73
2023/07/07 00:09:45;;;;;;;4.07;3.23;;;21.10;64.40;;;;;;5045133;28;20313;-72
2023/07/07 00:12:13;;;;;;;3.80;2.73;;;21.10;64.50;;;;;;5051139;28;20313;-73
2023/07/07 00:14:39;;;;;;;3.60;2.57;;;21.00;64.50;;;;;;5050832;28;20300;-71
2023/07/07 00:17:06;;;;;;;3.43;2.67;;;21.00;65.30;;;;;;5055837;28;20418;-73
2023/07/07 00:19:34;;;;;;;3.10;2.80;;;21.00;64.70;;;;;;5055861;28;20226;-72
2023/07/07 00:22:01;;;;;;;3.97;3.03;;;21.00;65.10;;;;;;5054626;28;20222;-72
2023/07/07 00:24:28;;;;;;;3.13;2.83;;;21.00;65.10;;;;;;5046815;28;20205;-72
2023/07/07 00:26:56;;;;;;;5.50;3.47;;;20.90;65.70;;;;;;5038057;28;20835;-72
2023/07/07 00:29:23;;;;;;;3.30;3.00;;;20.90;64.80;;;;;;5041207;28;20200;-73
2023/07/07 00:31:50;;;;;;;4.83;3.37;;;20.90;64.80;;;;;;5057083;28;20215;-73
2023/07/07 00:34:17;;;;;;;4.00;2.93;;;20.90;64.70;;;;;;5051987;28;20194;-72
2023/07/07 00:36:44;;;;;;;3.90;2.80;;;20.90;64.90;;;;;;5054332;28;20692;-73
2023/07/07 00:39:11;;;;;;;4.10;3.00;;;20.90;65.10;;;;;;5053663;28;20198;-72
2023/07/07 00:41:39;;;;;;;3.93;2.50;;;20.80;65.10;;;;;;5059412;28;20525;-71
2023/07/07 00:44:09;;;;;;;4.20;2.73;;;20.80;65.30;;;;;;5048203;28;20294;-73
2023/07/07 00:46:37;;;;;;;3.23;2.93;;;20.80;65.70;;;;;;5044688;28;20213;-72
2023/07/07 00:49:07;;;;;;;3.30;2.93;;;20.70;65.60;;;;;;5070093;28;20286;-72
2023/07/07 00:51:38;;;;;;;3.87;3.47;;;20.70;65.90;;;;;;5052968;28;20226;-72
2023/07/07 00:54:13;;;;;;;4.73;2.80;;;20.70;65.90;;;;;;5083135;28;20217;-72
2023/07/07 00:56:43;;;;;;;5.37;2.77;;;20.70;66.40;;;;;;5070146;28;20198;-72
2023/07/07 00:59:16;;;;;;;5.60;3.13;;;20.60;66.40;;;;;;5067762;28;20187;-72
2023/07/07 01:01:44;;;;;;;3.80;3.27;;;20.60;66.50;;;;;;5070318;28;20244;-72
2023/07/07 01:04:15;;;;;;;4.67;3.00;;;20.50;66.60;;;;;;5055667;28;20531;-72
2023/07/07 01:06:47;;;;;;;4.10;3.00;;;20.50;66.60;;;;;;5054378;28;20684;-72
2023/07/07 01:09:14;;;;;;;4.07;2.93;;;20.50;66.70;;;;;;5053899;28;20548;-72
2023/07/07 01:11:41;;;;;;;3.83;2.87;;;20.50;66.70;;;;;;5054237;28;20201;-72
2023/07/07 01:14:13;;;;;;;4.43;3.40;;;20.40;66.60;;;;;;5056286;28;20201;-73
2023/07/07 01:16:52;;;;;;;3.03;2.70;;;20.40;67.10;;;;;;5061173;28;20546;-71
2023/07/07 01:19:46;;;;;;;4.30;3.30;;;20.30;67.30;;;;;;5052591;28;20589;-71
2023/07/07 01:22:32;;;;;;;4.37;2.83;;;20.30;67.60;;;;;;5066915;28;20332;-72
2023/07/07 01:25:10;;;;;;;4.70;3.03;;;20.20;67.10;;;;;;5053714;28;20190;-72
2023/07/07 01:27:53;;;;;;;4.63;3.53;;;20.20;67.10;;;;;;5066927;28;20240;-72
2023/07/07 01:30:36;;;;;;;4.20;3.23;;;20.20;67.50;;;;;;5070396;28;20209;-72
2023/07/07 01:33:08;;;;;;;5.30;3.80;;;20.20;67.70;;;;;;5053506;28;20593;-71
2023/07/07 01:35:34;;;;;;;5.93;3.60;;;20.20;67.60;;;;;;5052773;28;20244;-72
2023/07/07 01:38:03;;;;;;;5.53;3.03;;;20.10;67.60;;;;;;5056289;28;20201;-72
2023/07/07 01:40:40;;;;;;;4.03;3.37;;;20.00;67.50;;;;;;5056475;28;20229;-73
2023/07/07 01:43:13;;;;;;;3.97;3.20;;;20.10;67.60;;;;;;5052476;28;20263;-73
2023/07/07 01:45:47;;;;;;;4.17;3.67;;;20.00;67.60;;;;;;5058767;28;20666;-72
2023/07/07 01:48:23;;;;;;;4.10;3.70;;;20.00;67.90;;;;;;5051021;28;20228;-72
2023/07/07 01:50:52;;;;;;;3.87;2.87;;;19.90;68.20;;;;;;5044299;28;20190;-72
2023/07/07 01:53:22;;;;;;;4.47;3.10;;;19.90;68.00;;;;;;5046415;28;20206;-72
2023/07/07 01:55:53;;;;;;;4.63;3.27;;;19.80;68.00;;;;;;5042692;28;20194;-72
2023/07/07 01:58:21;;;;;;;5.10;3.30;;;19.90;68.20;;;;;;5053097;28;20235;-72
2023/07/07 02:00:51;;;;;;;4.40;3.10;;;19.80;67.90;;;;;;5060946;28;20265;-72
2023/07/07 02:03:19;;;;;;;3.90;3.43;;;19.80;68.10;;;;;;5056078;28;20569;-72
2023/07/07 02:05:47;;;;;;;4.13;3.33;;;19.80;68.60;;;;;;5052207;28;20205;-72
2023/07/07 02:08:14;;;;;;;5.37;3.13;;;19.80;67.90;;;;;;5052075;28;20271;-73
2023/07/07 02:10:41;;;;;;;4.53;3.80;;;19.80;67.90;;;;;;5052943;28;20205;-73
2023/07/07 02:13:08;;;;;;;3.57;3.17;;;19.80;67.90;;;;;;5035584;28;20220;-72
2023/07/07 02:15:35;;;;;;;6.67;3.40;;;19.70;67.90;;;;;;5061593;28;20202;-73
2023/07/07 02:18:04;;;;;;;5.67;3.40;;;19.70;68.20;;;;;;5046153;28;20697;-72
2023/07/07 02:20:31;;;;;;;5.10;3.03;;;19.70;68.30;;;;;;5047034;28;20206;-72
2023/07/07 02:22:58;;;;;;;4.40;2.87;;;19.70;68.30;;;;;;5054095;28;20225;-73
2023/07/07 02:25:25;;;;;;;5.70;3.23;;;19.60;68.20;;;;;;5055753;28;20566;-72
2023/07/07 02:27:51;;;;;;;4.47;3.20;;;19.50;68.20;;;;;;5052956;28;20205;-73
2023/07/07 02:30:18;;;;;;;5.57;3.73;;;19.50;68.30;;;;;;5059443;28;20205;-72
2023/07/07 02:32:46;;;;;;;6.60;3.50;;;19.50;68.40;;;;;;5056107;28;20202;-73
2023/07/07 02:35:15;;;;;;;5.47;2.80;;;19.50;68.30;;;;;;5040182;28;20207;-73
2023/07/07 02:37:41;;;;;;;6.70;3.20;;;19.40;68.40;;;;;;5051003;28;20198;-73
2023/07/07 02:40:10;;;;;;;5.63;2.90;;;19.40;68.40;;;;;;4997874;28;20198;-72
2023/07/07 02:42:37;;;;;;;3.30;2.90;;;19.40;68.60;;;;;;5041353;28;20228;-72
2023/07/07 02:45:04;;;;;;;6.77;3.20;;;19.40;68.60;;;;;;5064317;28;20452;-71
2023/07/07 02:47:31;;;;;;;4.63;3.40;;;19.30;68.70;;;;;;5062824;28;20194;-73
2023/07/07 02:49:57;;;;;;;5.27;3.30;;;19.30;68.60;;;;;;5050322;28;20212;-71
2023/07/07 02:52:28;;;;;;;5.03;3.40;;;19.30;68.50;;;;;;5047035;28;20225;-72
2023/07/07 02:54:55;;;;;;;5.53;2.90;;;19.30;68.50;;;;;;5047477;28;20201;-73
2023/07/07 02:57:22;;;;;;;3.60;3.23;;;19.20;68.40;;;;;;5033400;28;20202;-72
2023/07/07 02:59:49;;;;;;;4.67;3.33;;;19.20;68.60;;;;;;5060726;28;20223;-73
2023/07/07 03:02:16;;;;;;;3.90;3.50;;;19.20;68.50;;;;;;5045992;28;20217;-72
2023/07/07 03:04:45;;;;;;;3.30;2.80;;;19.20;68.60;;;;;;5052035;28;20764;-73
2023/07/07 03:07:12;;;;;;;5.10;3.60;;;19.20;68.40;;;;;;5051870;28;20728;-72
2023/07/07 03:09:40;;;;;;;4.93;3.13;;;19.20;68.50;;;;;;5051608;28;20248;-73
2023/07/07 03:12:08;;;;;;;5.10;3.50;;;19.10;68.50;;;;;;5051953;28;20212;-73
2023/07/07 03:14:35;;;;;;;8.53;4.73;;;19.10;68.90;;;;;;5077125;28;20221;-73
2023/07/07 03:17:05;;;;;;;3.90;2.67;;;19.10;68.90;;;;;;5095244;28;20260;-74
2023/07/07 03:19:32;;;;;;;5.07;3.40;;;19.10;68.90;;;;;;5083687;28;20178;-72
2023/07/07 03:21:59;;;;;;;3.60;3.30;;;19.00;69.00;;;;;;5086619;28;20276;-73
2023/07/07 03:24:26;;;;;;;5.40;3.40;;;19.00;69.20;;;;;;5095673;28;20185;-73
2023/07/07 03:26:54;;;;;;;7.90;3.50;;;19.00;69.20;;;;;;5088183;28;20324;-72
2023/07/07 03:29:21;;;;;;;4.67;3.73;;;19.00;69.30;;;;;;5069393;28;20687;-72
2023/07/07 03:31:47;;;;;;;5.87;3.30;;;19.00;69.10;;;;;;5048207;28;20425;-73
2023/07/07 03:34:14;;;;;;;7.07;3.40;;;18.90;69.10;;;;;;5041051;28;20213;-72
2023/07/07 03:36:41;;;;;;;5.23;3.80;;;18.90;69.10;;;;;;5035790;28;20575;-72
2023/07/07 03:39:08;;;;;;;4.10;3.70;;;18.90;69.20;;;;;;5052083;28;20205;-73
2023/07/07 03:41:35;;;;;;;6.17;3.87;;;18.90;69.40;;;;;;5068544;28;20243;-72
2023/07/07 03:44:03;;;;;;;5.57;3.97;;;18.80;69.50;;;;;;5049076;28;20198;-73
2023/07/07 03:46:30;;;;;;;6.40;3.77;;;18.80;69.60;;;;;;5052569;28;20231;-72
2023/07/07 03:48:59;;;;;;;6.47;3.30;;;18.70;69.70;;;;;;5057603;28;20448;-72
2023/07/07 03:51:28;;;;;;;5.27;3.20;;;18.70;69.80;;;;;;5041195;28;20456;-72
2023/07/07 03:53:55;;;;;;;6.13;3.40;;;18.70;70.00;;;;;;5040797;28;20475;-73
2023/07/07 03:56:22;;;;;;;5.63;3.53;;;18.70;70.10;;;;;;5043694;28;20230;-72
2023/07/07 03:58:49;;;;;;;5.30;3.37;;;18.70;70.10;;;;;;5051601;28;20197;-73
2023/07/07 04:01:18;;;;;;;3.70;3.20;;;18.70;70.10;;;;;;5064452;28;20696;-73
2023/07/07 04:03:46;;;;;;;8.40;3.60;;;18.70;70.30;;;;;;5060926;28;20559;-73
2023/07/07 04:06:14;;;;;;;5.83;3.40;;;18.70;70.20;;;;;;5066374;28;20677;-73
2023/07/07 04:08:41;;;;;;;8.80;4.20;;;18.70;70.20;;;;;;5044581;28;20221;-73
2023/07/07 04:11:10;;;;;;;4.87;3.33;;;18.70;70.20;;;;;;5051737;28;20204;-73
2023/07/07 04:13:39;;;;;;;4.67;3.30;;;18.70;70.20;;;;;;5046206;28;20213;-73
2023/07/07 04:16:10;;;;;;;5.13;3.23;;;18.70;70.30;;;;;;5054733;28;20493;-73
2023/07/07 04:18:40;;;;;;;4.87;3.10;;;18.60;70.50;;;;;;5060193;28;20200;-72
2023/07/07 04:21:09;;;;;;;7.93;3.20;;;18.60;70.70;;;;;;5034248;28;20228;-73
2023/07/07 04:23:38;;;;;;;4.53;3.37;;;18.60;70.90;;;;;;5054918;28;20233;-73
2023/07/07 04:26:05;;;;;;;4.37;3.37;;;18.70;70.90;;;;;;5053481;28;20212;-72
2023/07/07 04:28:35;;;;;;;4.60;3.23;;;18.70;70.90;;;;;;5052139;28;20230;-72
2023/07/07 04:31:03;;;;;;;8.93;3.40;;;18.70;71.00;;;;;;5053858;28;20202;-73
2023/07/07 04:33:31;;;;;;;5.97;3.43;;;18.70;71.40;;;;;;5051372;28;20204;-73
2023/07/07 04:36:02;;;;;;;7.47;3.77;;;18.70;71.40;;;;;;5039808;28;20481;-72
2023/07/07 04:38:31;;;;;;;7.57;4.13;;;18.70;71.40;;;;;;5055518;28;20834;-73
2023/07/07 04:41:08;;;;;;;8.30;3.67;;;18.80;71.50;;;;;;5051128;28;20222;-73
2023/07/07 04:43:36;;;;;;;4.50;3.20;;;18.80;71.50;;;;;;5053132;28;20320;-73
2023/07/07 04:46:04;;;;;;;4.80;3.67;;;18.90;71.60;;;;;;5053763;28;20212;-73
2023/07/07 04:48:30;;;;;;;7.40;3.50;;;18.90;71.90;;;;;;5052292;28;20468;-73
2023/07/07 04:50:59;;;;;;;6.13;3.27;;;18.90;72.10;;;;;;5053746;28;20226;-72
2023/07/07 04:53:28;;;;;;;4.17;3.43;;;19.00;72.50;;;;;;5052178;28;20260;-72
2023/07/07 04:55:55;;;;;;;4.17;3.43;;;19.10;72.70;;;;;;5053282;28;20236;-73
2023/07/07 04:58:23;;;;;;;8.20;3.73;;;19.10;72.80;;;;;;5055508;28;20227;-72
2023/07/07 05:00:51;;;;;;;6.83;3.77;;;19.10;73.20;;;;;;5066590;28;20202;-72
2023/07/07 05:03:18;;;;;;;6.63;4.03;;;19.20;73.80;;;;;;5049129;28;20355;-73
2023/07/07 05:05:45;;;;;;;11.13;5.17;;;19.20;73.80;;;;;;5053617;28;20225;-73
2023/07/07 05:08:13;;;;;;;11.77;5.20;;;19.30;73.80;;;;;;5054055;28;20206;-73
2023/07/07 05:10:40;;;;;;;14.37;5.13;;;19.30;73.90;;;;;;5053664;28;20206;-73
2023/07/07 05:13:06;;;;;;;15.43;5.70;;;19.40;73.60;;;;;;5053639;28;20202;-73
2023/07/07 05:15:33;;;;;;;8.83;4.13;;;19.50;74.10;;;;;;5068512;28;20213;-73
2023/07/07 05:18:00;;;;;;;9.63;4.83;;;19.60;74.10;;;;;;5073788;28;20205;-73
2023/07/07 05:20:27;;;;;;;7.37;4.20;;;19.60;74.00;;;;;;5071386;28;20205;-73
2023/07/07 05:22:54;;;;;;;7.50;4.20;;;19.70;74.00;;;;;;5053357;28;20249;-73
2023/07/07 05:25:22;;;;;;;5.40;3.53;;;19.80;74.00;;;;;;5055359;28;20239;-73
2023/07/07 05:27:49;;;;;;;4.07;3.53;;;19.90;73.30;;;;;;5017265;28;20209;-72
2023/07/07 05:30:16;;;;;;;4.63;3.30;;;19.90;72.80;;;;;;5041951;28;20202;-73
2023/07/07 05:32:43;;;;;;;4.00;3.60;;;20.00;72.80;;;;;;5053599;28;20216;-72
2023/07/07 05:35:10;;;;;;;4.30;3.20;;;20.00;72.70;;;;;;5052937;28;20208;-72
2023/07/07 05:37:36;;;;;;;4.27;3.43;;;20.10;72.90;;;;;;5053359;28;20226;-72
2023/07/07 05:40:04;;;;;;;4.67;3.40;;;20.20;72.70;;;;;;5052989;28;20202;-72
2023/07/07 05:42:32;;;;;;;4.57;3.47;;;20.20;72.20;;;;;;5060603;28;20275;-72
2023/07/07 05:44:59;;;;;;;4.43;3.43;;;20.30;73.10;;;;;;5053109;28;20312;-73
2023/07/07 05:47:26;;;;;;;4.60;3.20;;;20.40;72.40;;;;;;5055544;28;20590;-73
2023/07/07 05:49:55;;;;;;;5.93;3.50;;;20.40;72.10;;;;;;5049628;28;20212;-73
2023/07/07 05:52:22;;;;;;;3.87;2.93;;;20.50;72.00;;;;;;5061891;28;20189;-74
2023/07/07 05:54:51;;;;;;;3.83;3.20;;;20.60;71.80;;;;;;5057327;28;20309;-73
2023/07/07 05:57:18;;;;;;;6.63;3.00;;;20.70;72.10;;;;;;5050420;28;20221;-73
2023/07/07 05:59:47;;;;;;;5.10;3.43;;;20.80;72.10;;;;;;5052843;28;20213;-73
2023/07/07 06:02:13;;;;;;;4.37;2.87;;;20.80;71.70;;;;;;5019144;28;20217;-75
2023/07/07 06:04:40;;;;;;;4.70;3.73;;;20.90;72.00;;;;;;5045968;28;20234;-74
2023/07/07 06:07:09;;;;;;;3.80;3.40;;;21.00;70.80;;;;;;5044910;28;20220;-73
2023/07/07 06:09:35;;;;;;;3.27;2.97;;;21.10;71.30;;;;;;5051560;28;20225;-72
2023/07/07 06:12:02;;;;;;;3.87;3.03;;;21.20;70.30;;;;;;5063208;28;20201;-73
2023/07/07 06:14:29;;;;;;;4.50;3.10;;;21.30;69.40;;;;;;5065587;28;20235;-73
2023/07/07 06:16:57;;;;;;;6.43;3.70;;;21.30;69.10;;;;;;5052336;28;20320;-73
2023/07/07 06:19:24;;;;;;;5.80;3.10;;;21.40;68.90;;;;;;5040266;28;20624;-73
2023/07/07 06:21:51;;;;;;;3.50;3.00;;;21.50;68.70;;;;;;5052068;28;20638;-73
2023/07/07 06:24:18;;;;;;;3.87;2.60;;;21.60;68.60;;;;;;5054563;28;20222;-73
2023/07/07 06:26:45;;;;;;;5.30;3.00;;;21.70;68.20;;;;;;5051437;28;20304;-73
2023/07/07 06:29:12;;;;;;;4.33;3.40;;;21.70;68.20;;;;;;5051632;28;20585;-73
2023/07/07 06:31:38;;;;;;;3.53;3.07;;;21.80;68.00;;;;;;5058244;28;20209;-74
2023/07/07 06:34:06;;;;;;;6.10;3.23;;;22.00;68.30;;;;;;5031661;28;20206;-72
2023/07/07 06:36:33;;;;;;;4.20;2.80;;;22.00;68.00;;;;;;5049315;28;20202;-73
2023/07/07 06:39:00;;;;;;;6.00;3.20;;;22.10;67.90;;;;;;5050453;28;20205;-73
2023/07/07 06:41:27;;;;;;;3.50;3.10;;;22.20;67.00;;;;;;5057109;28;20212;-73
2023/07/07 06:43:56;;;;;;;4.23;2.97;;;22.30;66.70;;;;;;5053167;28;20224;-73
2023/07/07 06:46:25;;;;;;;4.33;3.30;;;22.40;66.60;;;;;;5050386;28;20202;-73
2023/07/07 06:48:52;;;;;;;4.73;2.97;;;22.50;66.00;;;;;;5050477;28;20224;-73
2023/07/07 06:51:20;;;;;;;3.40;2.67;;;22.60;65.50;;;;;;5050199;28;20199;-73
2023/07/07 06:53:47;;;;;;;4.03;3.13;;;22.70;65.00;;;;;;5029937;28;20237;-73
2023/07/07 06:56:14;;;;;;;4.23;3.20;;;22.70;64.90;;;;;;5043175;28;20198;-73
2023/07/07 06:58:40;;;;;;;6.17;3.00;;;22.90;64.10;;;;;;5050363;28;20653;-74
2023/07/07 07:01:10;;;;;;;3.90;2.60;;;23.00;64.40;;;;;;5053270;28;20197;-73
2023/07/07 07:03:37;;;;;;;4.33;2.87;;;23.00;64.10;;;;;;5069784;28;20243;-74
2023/07/07 07:06:04;;;;;;;4.40;3.13;;;23.10;63.70;;;;;;5069758;28;20217;-73
2023/07/07 07:08:32;;;;;;;3.80;3.00;;;23.30;63.20;;;;;;5031382;28;20232;-73
2023/07/07 07:11:00;;;;;;;4.40;2.40;;;23.40;63.10;;;;;;5034631;28;20207;-73
2023/07/07 07:13:27;;;;;;;5.20;2.77;;;23.50;62.50;;;;;;5070210;28;20201;-72
2023/07/07 07:15:54;;;;;;;3.53;2.70;;;23.60;61.80;;;;;;5048454;28;20272;-73
2023/07/07 07:18:21;;;;;;;2.90;2.60;;;23.70;61.80;;;;;;5030514;28;20210;-77
2023/07/07 07:20:49;;;;;;;3.47;2.87;;;23.80;60.80;;;;;;5044310;28;20650;-72
2023/07/07 07:23:16;;;;;;;3.43;2.70;;;23.90;60.00;;;;;;5060651;28;20664;-74
2023/07/07 07:25:45;;;;;;;3.63;2.90;;;24.00;59.40;;;;;;5073847;28;20207;-73
2023/07/07 07:28:13;;;;;;;4.47;2.97;;;24.10;58.90;;;;;;5059313;28;20214;-76
2023/07/07 07:30:41;;;;;;;4.33;2.83;;;24.20;59.00;;;;;;5043559;28;20205;-75
2023/07/07 07:33:12;;;;;;;6.10;2.93;;;24.30;58.60;;;;;;5055003;28;20194;-75
2023/07/07 07:35:39;;;;;;;3.73;3.07;;;24.40;58.90;;;;;;5054228;28;20200;-74
2023/07/07 07:38:06;;;;;;;6.17;2.70;;;24.50;58.60;;;;;;5054710;28;20296;-74
2023/07/07 07:40:33;;;;;;;5.03;3.07;;;24.60;58.50;;;;;;5054480;28;20212;-75
2023/07/07 07:43:02;;;;;;;3.17;2.87;;;24.70;58.10;;;;;;5054316;28;20233;-73
2023/07/07 07:45:29;;;;;;;4.13;2.90;;;24.80;57.60;;;;;;5054183;28;20569;-75
2023/07/07 07:47:56;;;;;;;5.37;2.83;;;24.90;57.30;;;;;;5052928;28;20206;-73
2023/07/07 07:50:23;;;;;;;4.80;2.90;;;25.00;57.30;;;;;;5053877;28;20237;-73
2023/07/07 07:52:50;;;;;;;4.33;2.90;;;25.10;57.40;;;;;;5070594;28;20280;-73
2023/07/07 07:55:17;;;;;;;5.03;3.43;;;25.20;57.10;;;;;;5054230;28;20212;-75
2023/07/07 07:57:45;;;;;;;3.63;3.20;;;25.40;57.20;;;;;;5054699;28;20537;-74
2023/07/07 08:00:14;;;;;;;4.13;2.97;;;25.50;56.80;;;;;;5040043;28;20231;-74
2023/07/07 08:02:41;;;;;;;4.77;2.87;;;25.50;57.20;;;;;;5059443;28;20223;-73
2023/07/07 08:05:09;;;;;;;6.87;3.03;;;25.70;56.80;;;;;;5056397;28;20692;-74
2023/07/07 08:07:36;;;;;;;5.57;3.23;;;25.80;55.90;;;;;;5054282;28;20205;-74
2023/07/07 08:10:03;;;;;;;4.73;3.00;;;25.90;56.10;;;;;;5053996;28;20227;-72
2023/07/07 08:12:31;;;;;;;3.93;3.07;;;26.00;56.30;;;;;;5067054;28;20201;-75
2023/07/07 08:14:58;;;;;;;3.27;2.97;;;26.10;55.90;;;;;;5050682;28;20202;-73
2023/07/07 08:17:26;;;;;;;5.73;3.37;;;26.20;55.70;;;;;;5033854;28;20222;-74
2023/07/07 08:19:54;;;;;;;4.40;2.90;;;26.30;55.30;;;;;;5033927;28;20234;-72
2023/07/07 08:22:24;;;;;;;6.73;3.30;;;26.40;55.50;;;;;;5050785;28;20206;-74
2023/07/07 08:24:53;;;;;;;4.53;3.27;;;26.50;54.90;;;;;;5054745;28;20307;-75
2023/07/07 08:27:22;;;;;;;3.97;3.00;;;26.60;55.20;;;;;;5044091;28;20219;-74
2023/07/07 08:29:49;;;;;;;4.53;3.07;;;26.70;54.20;;;;;;5034874;28;20213;-74
2023/07/07 08:32:21;;;;;;;5.27;3.50;;;26.70;54.90;;;;;;5055741;28;20312;-73
2023/07/07 08:34:50;;;;;;;4.37;3.20;;;26.80;54.60;;;;;;5057796;28;20201;-74
2023/07/07 08:37:17;;;;;;;3.37;2.80;;;27.00;54.40;;;;;;5033722;28;20210;-73
2023/07/07 08:39:44;;;;;;;4.37;3.30;;;27.10;54.60;;;;;;5034359;28;20221;-73
2023/07/07 08:42:22;;;;;;;5.23;3.50;;;27.20;54.50;;;;;;5051375;28;20206;-75
2023/07/07 08:44:49;;;;;;;3.97;3.50;;;27.30;53.10;;;;;;5054402;28;20210;-75
2023/07/07 08:47:28;;;;;;;4.23;3.30;;;27.40;54.30;;;;;;5054395;28;20206;-73
2023/07/07 08:50:02;;;;;;;3.10;2.80;;;27.50;55.30;;;;;;5047045;28;20197;-75
2023/07/07 08:52:37;;;;;;;3.57;3.17;;;27.60;53.90;;;;;;5058234;28;20209;-75
2023/07/07 08:55:21;;;;;;;4.60;3.30;;;27.70;54.70;;;;;;5074187;28;20213;-74
2023/07/07 08:57:55;;;;;;;4.37;3.40;;;27.90;53.40;;;;;;5057698;28;20193;-73
2023/07/07 09:00:27;;;;;;;4.20;3.30;;;28.00;52.80;;;;;;5053796;28;20758;-75
2023/07/07 09:03:12;;;;;;;4.07;3.47;;;28.10;53.70;;;;;;5036510;28;20644;-75
2023/07/07 09:05:54;;;;;;;3.50;3.20;;;28.20;54.20;;;;;;5071020;28;20586;-74
2023/07/07 09:08:29;;;;;;;4.03;3.23;;;28.30;52.60;;;;;;5054149;28;20212;-73
2023/07/07 09:11:08;;;;;;;5.30;3.20;;;28.40;53.40;;;;;;5053900;28;20193;-74
2023/07/07 09:13:37;;;;;;;3.67;3.30;;;28.50;53.40;;;;;;5053773;28;20216;-74
2023/07/07 09:16:18;;;;;;;4.70;3.17;;;28.60;52.70;;;;;;5053260;28;20206;-75
2023/07/07 09:18:50;;;;;;;3.63;3.20;;;28.70;51.70;;;;;;5039549;28;20205;-73
2023/07/07 09:21:29;;;;;;;3.07;2.77;;;28.80;51.00;;;;;;5053690;28;20247;-74
2023/07/07 09:24:01;;;;;;;4.90;3.17;;;28.80;51.20;;;;;;5053702;28;20228;-75
2023/07/07 09:26:31;;;;;;;3.73;3.07;;;28.90;51.70;;;;;;5053380;28;20232;-75
2023/07/07 09:29:00;;;;;;;4.77;3.10;;;29.00;51.90;;;;;;5071210;28;20583;-75
2023/07/07 09:31:31;;;;;;;4.10;3.27;;;29.10;51.30;;;;;;5057999;28;20199;-75
2023/07/07 09:34:02;;;;;;;4.63;3.50;;;29.20;51.50;;;;;;5050650;28;20588;-73
2023/07/07 09:36:36;;;;;;;3.63;3.07;;;29.30;50.80;;;;;;5035022;28;20836;-76
2023/07/07 09:39:17;;;;;;;3.80;3.40;;;29.40;50.70;;;;;;5041572;28;20200;-72
2023/07/07 09:41:54;;;;;;;5.20;3.57;;;29.50;49.70;;;;;;5077021;28;20232;-74
2023/07/07 09:44:46;;;;;;;4.23;3.27;;;29.60;50.90;;;;;;5083399;28;20815;-76
2023/07/07 09:47:19;;;;;;;3.97;3.57;;;29.70;49.30;;;;;;5076695;28;20212;-75
2023/07/07 09:49:51;;;;;;;5.07;4.13;;;29.80;50.30;;;;;;5074722;28;20228;-75
2023/07/07 09:52:36;;;;;;;4.33;3.57;;;29.90;49.30;;;;;;5059361;28;20210;-75
2023/07/07 09:55:10;;;;;;;5.27;3.83;;;30.00;48.90;;;;;;5046103;28;20698;-74
2023/07/07 09:57:41;;;;;;;4.37;3.77;;;30.10;49.20;;;;;;5014851;28;20201;-74
2023/07/07 10:00:16;;;;;;;4.87;3.37;;;30.20;49.20;;;;;;5032087;28;20302;-74
2023/07/07 10:02:45;;;;;;;4.30;3.90;;;30.30;48.90;;;;;;5041088;28;20703;-73
2023/07/07 10:05:15;;;;;;;4.00;3.43;;;30.40;48.60;;;;;;5072784;28;20692;-74
2023/07/07 10:07:44;;;;;;;3.90;3.47;;;30.50;48.00;;;;;;5073112;28;20201;-75
2023/07/07 10:10:14;;;;;;;5.23;3.73;;;30.50;47.90;;;;;;5047596;28;20237;-73
2023/07/07 10:12:41;;;;;;;4.13;3.73;;;30.60;47.50;;;;;;5033180;28;20193;-73
2023/07/07 10:15:29;;;;;;;4.87;4.03;;;30.70;47.50;;;;;;5048486;28;20262;-74
2023/07/07 10:18:00;;;;;;;4.40;4.00;;;30.70;47.20;;;;;;5053837;28;20204;-74
2023/07/07 10:20:27;;;;;;;5.37;4.00;;;30.80;47.40;;;;;;5072830;28;20231;-73
2023/07/07 10:22:56;;;;;;;4.57;4.10;;;30.90;46.70;;;;;;5073150;28;20217;-75
2023/07/07 10:25:25;;;;;;;4.90;4.40;;;31.00;45.80;;;;;;5057750;28;20221;-73
2023/07/07 10:27:55;;;;;;;5.43;4.40;;;31.10;46.50;;;;;;5057196;28;20205;-75
2023/07/07 10:30:22;;;;;;;5.13;4.23;;;31.10;45.80;;;;;;5052423;28;20661;-74
2023/07/07 10:32:49;;;;;;;4.83;4.40;;;31.20;45.90;;;;;;5053048;28;20308;-76
2023/07/07 10:35:19;;;;;;;4.70;4.13;;;31.30;46.40;;;;;;5052655;28;20204;-75
2023/07/07 10:37:46;;;;;;;4.67;4.23;;;31.40;45.00;;;;;;5052789;28;20202;-73
2023/07/07 10:40:21;;;;;;;5.20;4.57;;;31.50;45.10;;;;;;5049507;28;20221;-73
2023/07/07 10:42:52;;;;;;;6.13;4.47;;;31.50;44.60;;;;;;5051605;28;20193;-74
2023/07/07 10:45:19;;;;;;;5.17;4.03;;;31.60;44.70;;;;;;5041214;28;20218;-75
2023/07/07 10:47:46;;;;;;;4.83;4.33;;;31.70;44.80;;;;;;5032629;28;20195;-76
2023/07/07 10:50:16;;;;;;;5.17;4.67;;;31.70;44.80;;;;;;5045335;28;20681;-74
2023/07/07 10:53:05;;;;;;;7.47;4.80;;;31.90;44.00;;;;;;5052840;28;20225;-73
2023/07/07 10:55:51;;;;;;;7.10;4.50;;;31.90;44.20;;;;;;5052389;28;20187;-72
2023/07/07 10:58:28;;;;;;;5.03;4.20;;;32.00;43.60;;;;;;5052131;28;20194;-74
2023/07/07 11:01:02;;;;;;;5.50;4.60;;;32.10;42.50;;;;;;5051851;28;20678;-74
2023/07/07 11:03:57;;;;;;;5.60;5.10;;;32.20;41.30;;;;;;5070039;28;20209;-74
2023/07/07 11:06:31;;;;;;;6.63;5.53;;;32.10;39.60;;;;;;5071737;28;20291;-73
2023/07/07 11:09:09;;;;;;;6.27;5.53;;;32.10;39.50;;;;;;5072358;28;20190;-75
2023/07/07 11:11:43;;;;;;;8.57;6.47;;;32.10;39.40;;;;;;5070086;28;20719;-75
2023/07/07 11:14:26;;;;;;;8.60;5.80;;;32.20;37.10;;;;;;5037457;28;20305;-74
2023/07/07 11:17:05;;;;;;;8.30;6.00;;;32.10;36.70;;;;;;5052016;28;20188;-73
2023/07/07 11:19:46;;;;;;;7.43;6.63;;;32.20;39.10;;;;;;5052117;28;20585;-74
2023/07/07 11:22:22;;;;;;;7.47;6.60;;;32.40;39.10;;;;;;5033029;28;20216;-75
2023/07/07 11:24:56;;;;;;;7.63;6.17;;;32.50;38.30;;;;;;5051992;28;20234;-75
2023/07/07 11:27:48;;;;;;;8.93;6.60;;;32.60;36.90;;;;;;5067515;28;20233;-75
2023/07/07 11:30:23;;;;;;;7.97;6.50;;;32.70;37.60;;;;;;5071567;28;20206;-74
2023/07/07 11:33:00;;;;;;;10.27;6.10;;;32.80;38.10;;;;;;5058859;28;20297;-77
2023/07/07 11:35:42;;;;;;;9.03;5.77;;;32.80;37.60;;;;;;5051643;28;20238;-75
2023/07/07 11:38:40;;;;;;;6.97;6.33;;;32.90;38.10;;;;;;5057409;28;20207;-73
2023/07/07 11:41:14;;;;;;;8.70;5.93;;;33.00;36.10;;;;;;5069585;28;20716;-74
2023/07/07 11:44:11;;;;;;;9.53;6.50;;;33.10;36.70;;;;;;5056163;28;20199;-74
2023/07/07 11:46:50;;;;;;;7.63;6.20;;;33.10;34.00;;;;;;5051421;28;20200;-73
2023/07/07 11:49:32;;;;;;;7.27;6.43;;;33.10;34.80;;;;;;5036464;28;20594;-75
2023/07/07 11:52:12;;;;;;;8.47;6.67;;;33.00;33.10;;;;;;5071447;28;20661;-74
2023/07/07 11:55:04;;;;;;;7.53;6.10;;;33.00;34.30;;;;;;5071731;28;20226;-73
2023/07/07 11:57:44;;;;;;;8.00;7.00;;;33.10;36.60;;;;;;5071387;28;20211;-74
2023/07/07 12:00:25;;;;;;;7.97;6.37;;;33.20;36.80;;;;;;5071512;28;20204;-74
2023/07/07 12:02:57;;;;;;;8.10;6.60;;;33.30;33.80;;;;;;5054976;28;20578;-74
2023/07/07 12:05:28;;;;;;;7.63;6.80;;;33.40;33.60;;;;;;5066587;28;20225;-73
2023/07/07 12:08:00;;;;;;;8.97;6.63;;;33.30;32.40;;;;;;5071256;28;20675;-74
2023/07/07 12:10:31;;;;;;;7.23;6.40;;;33.20;32.30;;;;;;5072447;28;20241;-74
2023/07/07 12:13:03;;;;;;;7.20;6.40;;;33.20;33.30;;;;;;5075196;28;20673;-74
2023/07/07 12:15:36;;;;;;;7.80;6.77;;;33.30;33.80;;;;;;5044182;28;20214;-73
2023/07/07 12:18:13;;;;;;;8.07;6.50;;;33.50;34.70;;;;;;5053674;28;20200;-74
2023/07/07 12:20:45;;;;;;;7.63;6.83;;;33.50;33.60;;;;;;5053201;28;20680;-74
2023/07/07 12:23:16;;;;;;;7.07;6.33;;;33.60;32.40;;;;;;5053883;28;20228;-74
2023/07/07 12:25:46;;;;;;;7.03;6.33;;;33.70;31.70;;;;;;5055016;28;20209;-76
2023/07/07 12:28:14;;;;;;;10.30;7.17;;;33.70;32.40;;;;;;5034940;28;20232;-74
2023/07/07 12:30:47;;;;;;;7.60;6.80;;;33.70;32.60;;;;;;5035921;28;20725;-75
2023/07/07 12:33:16;;;;;;;7.07;6.37;;;33.80;32.50;;;;;;5051473;28;20198;-73
2023/07/07 12:35:48;;;;;;;7.13;6.17;;;33.80;31.50;;;;;;5054551;28;20215;-73
2023/07/07 12:38:24;;;;;;;7.80;6.63;;;33.90;33.30;;;;;;5055089;28;20747;-76
2023/07/07 12:40:51;;;;;;;7.77;6.73;;;34.00;33.50;;;;;;5054615;28;20225;-76
2023/07/07 12:43:27;;;;;;;8.07;6.17;;;34.10;33.60;;;;;;5051255;28;20193;-74
2023/07/07 12:45:56;;;;;;;9.00;6.20;;;34.20;33.30;;;;;;5045697;28;20303;-74
2023/07/07 12:48:29;;;;;;;6.93;6.13;;;34.30;32.60;;;;;;5053883;28;20232;-74
2023/07/07 12:51:01;;;;;;;7.33;6.50;;;34.30;30.80;;;;;;5030931;28;20205;-74
2023/07/07 12:53:31;;;;;;;7.20;6.40;;;34.20;30.80;;;;;;5074429;28;20193;-75
2023/07/07 12:56:02;;;;;;;7.60;6.80;;;34.30;33.30;;;;;;5055974;28;20198;-75
2023/07/07 12:58:41;;;;;;;9.03;6.77;;;34.40;32.80;;;;;;5054447;28;20190;-74
2023/07/07 13:01:28;;;;;;;8.10;7.07;;;34.50;31.00;;;;;;5046717;28;20226;-74
2023/07/07 13:04:11;;;;;;;8.13;7.07;;;34.50;32.10;;;;;;5035757;28;20190;-75